Terminal Aerodrome Forecast
Issued by NWS

Home | Current Version | Previous Version | Text Only | Print | Product List | Glossary On
Versions: 1 2 3 4 5 6 7 8 9 10 11 12
000
FTUS42 TJSJ 290500 RRA
TAFNCM
TAF
TNCM 290539Z 2906/3006 11011KT P6SM FEW020
     FM290750 09009KT P6SM VCSH SCT019 SCT035
     FM291400 12014KT P6SM SCT024=

USA.gov is the U.S. government's official web portal to all federal, state and local government web resources and services.